Stone, Indiana
Current Conditions -  °F | °C
As of 3:21 PM on Friday 31 Oct 2014 (Local Time) from KMIE Reporting Station
Light Rain Light Rain  
Wind Chill: 30°   Ceiling: 1000
Heat Index: 38°   Visibility: 8mi
Dew Point: 35°   Wind: 14mph
Humidity: 89%   Direction: 310°NW
Pressure: 29.93"   Gusts: NA
Location:  40.1634°N, 85.045°W
Report Text: KMIE 311921Z 31012KT 8SM -RA BKN010 OVC016 03/02 A2993 RMK AO2 SNB01E11 P0001 T00330017
Loading
Personal Weather Stations






























Interactive Weather Map
Tropical Storm Tracking
New forecast layout! Learn more

10-Day Weather Forecast

Advertisements
Track Severe Weather on mobile